Time;durP1;ratioP1;P1;durP2;ratioP2;P2;SDS_P1;SDS_P2;PMS_P1;PMS_P2;Temp;Humidity;BMP_temperature;BMP_pressure;BME280_temperature;BME280_humidity;BME280_pressure;Samples;Min_cycle;Max_cycle;Signal;HPM_P1;HPM_P2
2024/03/29 00:00:08;;;;;;;2.40;1.30;;;;;;;7.43;100.00;97687.20;271225;1266;22563;-92
2024/03/29 00:06:34;;;;;;;4.80;2.00;;;;;;;7.35;100.00;97707.35;271136;1267;23499;-90
2024/03/29 00:12:37;;;;;;;6.10;2.60;;;;;;;7.28;100.00;97717.05;270558;1267;24800;-92
2024/03/29 00:18:39;;;;;;;5.50;2.90;;;;;;;7.23;100.00;97720.98;269643;1267;23318;-91
2024/03/29 00:24:41;;;;;;;3.50;2.00;;;;;;;7.18;100.00;97732.70;271319;1267;22360;-92
2024/03/29 00:30:42;;;;;;;6.10;1.80;;;;;;;7.14;100.00;97740.70;269738;1267;24681;-89
2024/03/29 00:36:44;;;;;;;4.20;2.00;;;;;;;7.11;100.00;97752.73;271602;1267;23348;-89
2024/03/29 00:42:46;;;;;;;2.90;1.90;;;;;;;7.06;100.00;97757.23;270734;1267;23417;-91
2024/03/29 00:48:48;;;;;;;4.40;2.50;;;;;;;7.02;100.00;97768.39;273100;1268;23245;-90
2024/03/29 00:54:51;;;;;;;7.60;2.60;;;;;;;6.99;100.00;97777.86;271030;1268;22557;-91
2024/03/29 01:00:54;;;;;;;7.50;3.20;;;;;;;6.97;100.00;97793.24;270001;1267;25467;-89
2024/03/29 01:06:56;;;;;;;4.10;2.20;;;;;;;6.95;100.00;97814.39;270030;1267;24073;-90
2024/03/29 01:12:58;;;;;;;4.60;2.70;;;;;;;6.93;100.00;97831.55;270078;1267;22576;-90
2024/03/29 01:19:00;;;;;;;5.30;2.00;;;;;;;6.90;100.00;97833.23;270268;1267;23500;-89
2024/03/29 01:25:03;;;;;;;4.40;1.80;;;;;;;6.87;100.00;97835.85;270053;1267;22572;-90
2024/03/29 01:31:05;;;;;;;2.30;1.40;;;;;;;6.81;100.00;97838.14;270298;1267;22563;-90
2024/03/29 01:37:07;;;;;;;2.20;1.20;;;;;;;6.71;100.00;97848.80;270123;1267;22529;-88
2024/03/29 01:43:13;;;;;;;2.80;1.50;;;;;;;6.59;100.00;97866.16;272040;1255;22550;-90
2024/03/29 01:49:16;;;;;;;4.50;1.90;;;;;;;6.52;100.00;97877.52;269976;1267;22524;-89
2024/03/29 01:55:20;;;;;;;3.70;1.70;;;;;;;6.42;100.00;97898.16;272249;1267;22273;-89
2024/03/29 02:01:23;;;;;;;2.90;1.40;;;;;;;6.25;100.00;97920.29;270939;1260;23513;-89
2024/03/29 02:07:28;;;;;;;2.60;1.50;;;;;;;6.08;100.00;97938.23;272614;1268;23683;-90
2024/03/29 02:13:31;;;;;;;3.10;2.00;;;;;;;5.95;100.00;97958.20;272609;1268;22256;-91
2024/03/29 02:19:33;;;;;;;4.40;2.60;;;;;;;5.81;100.00;97973.66;273044;1267;22526;-88
2024/03/29 02:25:35;;;;;;;3.70;2.20;;;;;;;5.66;100.00;97995.02;272032;1267;22555;-90
2024/03/29 02:31:37;;;;;;;4.30;2.20;;;;;;;5.64;100.00;98007.86;272965;1266;22351;-90
2024/03/29 02:37:40;;;;;;;3.10;1.70;;;;;;;5.63;100.00;98024.99;272904;1267;23043;-89
2024/03/29 02:43:42;;;;;;;5.40;1.80;;;;;;;5.67;100.00;98042.36;271809;1267;22343;-90
2024/03/29 02:49:44;;;;;;;2.30;1.40;;;;;;;5.69;100.00;98040.54;271809;1267;23007;-89
2024/03/29 02:55:46;;;;;;;4.40;1.60;;;;;;;5.68;100.00;98038.95;273236;1268;22213;-88
2024/03/29 03:01:47;;;;;;;2.20;1.50;;;;;;;5.70;100.00;98049.62;271950;1267;23353;-89
2024/03/29 03:14:10;;;;;;;2.80;1.40;;;;;;;5.63;100.00;98082.48;273008;1267;22274;-89
2024/03/29 03:20:13;;;;;;;4.70;2.00;;;;;;;5.56;100.00;98097.98;273084;1267;22211;-89
2024/03/29 03:26:15;;;;;;;2.80;1.70;;;;;;;5.48;100.00;98109.30;273091;1267;22350;-89
2024/03/29 03:32:18;;;;;;;6.90;2.70;;;;;;;5.36;100.00;98124.21;273074;1266;22613;-89
2024/03/29 03:38:20;;;;;;;5.60;2.40;;;;;;;5.27;100.00;98121.57;272131;1267;23748;-88
2024/03/29 03:44:24;;;;;;;4.80;2.30;;;;;;;5.23;100.00;98115.15;271099;1267;23671;-88
2024/03/29 03:50:26;;;;;;;9.20;3.80;;;;;;;5.17;100.00;98115.73;271590;1267;22552;-90
2024/03/29 03:56:28;;;;;;;8.40;5.20;;;;;;;5.06;100.00;98124.67;272775;1269;22321;-89
2024/03/29 04:02:31;;;;;;;7.20;3.50;;;;;;;5.07;100.00;98127.80;272610;1267;23286;-89
2024/03/29 04:08:33;;;;;;;4.30;2.70;;;;;;;5.08;100.00;98134.11;272560;1266;22355;-89
2024/03/29 04:14:35;;;;;;;4.30;2.20;;;;;;;5.01;100.00;98152.80;272975;1267;22402;-90
2024/03/29 04:20:37;;;;;;;4.10;1.90;;;;;;;4.88;100.00;98153.23;271297;1267;22367;-90
2024/03/29 04:26:40;;;;;;;3.70;1.50;;;;;;;4.75;100.00;98151.11;271896;1268;22387;-89
2024/03/29 04:32:43;;;;;;;2.10;0.90;;;;;;;4.62;100.00;98160.22;271465;1254;24243;-90
2024/03/29 04:38:45;;;;;;;2.80;1.50;;;;;;;4.54;100.00;98162.23;272559;1267;23255;-90
2024/03/29 04:44:47;;;;;;;1.80;0.80;;;;;;;4.58;100.00;98163.05;273184;1266;22489;-89
2024/03/29 04:50:49;;;;;;;2.80;1.50;;;;;;;4.64;100.00;98177.67;272887;1267;25346;-90
2024/03/29 04:56:50;;;;;;;2.40;1.50;;;;;;;4.66;100.00;98186.55;271771;1267;22445;-90
2024/03/29 05:02:54;;;;;;;2.20;1.20;;;;;;;4.63;100.00;98183.64;271478;1264;22559;-90
2024/03/29 05:08:56;;;;;;;2.20;1.50;;;;;;;4.71;100.00;98194.16;272181;1267;22316;-90
2024/03/29 05:14:59;;;;;;;1.90;1.20;;;;;;;4.93;100.00;98180.98;272572;1267;23696;-88
2024/03/29 05:21:02;;;;;;;3.70;1.30;;;;;;;5.24;100.00;98177.56;272422;1266;22596;-89
2024/03/29 05:27:04;;;;;;;1.60;1.20;;;;;;;5.49;100.00;98189.67;271238;1254;22619;-89
2024/03/29 05:33:06;;;;;;;2.50;1.60;;;;;;;5.84;100.00;98202.71;271412;1257;22376;-89
2024/03/29 05:39:09;;;;;;;2.50;1.00;;;;;;;6.35;100.00;98222.02;271684;1267;22554;-88
2024/03/29 05:45:32;;;;;;;2.30;1.20;;;;;;;6.90;100.00;98224.90;271663;1267;22562;-90
2024/03/29 05:51:34;;;;;;;2.20;0.90;;;;;;;7.55;100.00;98232.23;272235;1266;22379;-91
2024/03/29 05:57:40;;;;;;;2.90;1.40;;;;;;;8.13;100.00;98235.91;273354;1266;23122;-90
2024/03/29 06:03:42;;;;;;;4.70;1.90;;;;;;;8.53;100.00;98235.30;271894;1266;22607;-90
2024/03/29 06:09:45;;;;;;;2.50;1.20;;;;;;;8.95;100.00;98236.52;271936;1267;22503;-90
2024/03/29 06:22:10;;;;;;;3.20;0.80;;;;;;;9.79;99.94;98252.36;271869;1267;22617;-90
2024/03/29 06:28:12;;;;;;;1.00;0.50;;;;;;;10.02;98.88;98259.52;271105;1267;23074;-90
2024/03/29 06:34:14;;;;;;;2.30;0.90;;;;;;;10.21;97.40;98254.95;270783;1267;22621;-88
2024/03/29 06:40:16;;;;;;;1.60;0.60;;;;;;;10.34;95.82;98239.96;270225;1264;22530;-90
2024/03/29 06:46:21;;;;;;;2.40;0.70;;;;;;;10.60;95.45;98234.31;272066;1267;22457;-91
2024/03/29 06:52:25;;;;;;;1.50;0.60;;;;;;;10.80;93.51;98237.02;271215;1266;22552;-90
2024/03/29 06:58:28;;;;;;;1.10;0.40;;;;;;;11.04;91.95;98242.60;270794;1267;22653;-90
2024/03/29 07:04:30;;;;;;;3.20;0.70;;;;;;;11.27;90.77;98249.95;272008;1269;22713;-90
2024/03/29 07:10:32;;;;;;;2.30;0.60;;;;;;;11.47;89.81;98264.91;272350;1269;24048;-90
2024/03/29 07:16:35;;;;;;;2.70;0.40;;;;;;;11.80;88.94;98263.91;272147;1269;22575;-90
2024/03/29 07:22:39;;;;;;;1.50;0.80;;;;;;;12.14;87.68;98239.10;270685;1269;23753;-91
2024/03/29 07:28:42;;;;;;;5.50;0.60;;;;;;;12.40;86.28;98220.70;270783;1269;23336;-90
2024/03/29 07:34:45;;;;;;;1.80;0.60;;;;;;;12.73;84.93;98210.73;271246;1266;22604;-90
2024/03/29 07:40:48;;;;;;;1.10;0.40;;;;;;;13.08;84.68;98196.98;271819;1269;22672;-89
2024/03/29 07:46:49;;;;;;;1.80;0.50;;;;;;;13.45;83.00;98215.45;270426;1269;22549;-91
2024/03/29 07:52:51;;;;;;;1.40;0.60;;;;;;;13.81;80.58;98243.04;270582;1269;22490;-90
2024/03/29 07:58:55;;;;;;;0.90;0.40;;;;;;;14.24;79.83;98250.44;270992;1260;22426;-92
2024/03/29 08:04:58;;;;;;;1.10;0.70;;;;;;;14.68;77.79;98254.07;271314;1267;24227;-91
2024/03/29 08:11:07;;;;;;;1.10;0.40;;;;;;;15.01;76.78;98263.55;271840;1267;22565;-92
2024/03/29 08:17:15;;;;;;;0.90;0.40;;;;;;;15.15;71.88;98259.34;271519;1259;22567;-91
2024/03/29 08:23:18;;;;;;;2.10;0.70;;;;;;;15.31;69.96;98269.86;271701;1269;22526;-91
2024/03/29 08:29:21;;;;;;;2.60;1.10;;;;;;;15.91;70.38;98271.70;271389;1267;22417;-91
2024/03/29 08:35:23;;;;;;;1.70;0.50;;;;;;;16.26;68.56;98270.48;271962;1263;22572;-91
2024/03/29 08:41:26;;;;;;;2.40;0.90;;;;;;;16.44;67.61;98265.14;271701;1267;22338;-91
2024/03/29 08:47:27;;;;;;;1.40;0.50;;;;;;;16.61;65.86;98269.39;272774;1269;22536;-90
2024/03/29 08:53:36;;;;;;;2.10;0.60;;;;;;;16.74;63.66;98269.86;272490;1268;22491;-91
2024/03/29 08:59:39;;;;;;;1.20;0.30;;;;;;;16.91;62.05;98268.19;271599;1269;22325;-90
2024/03/29 09:05:44;;;;;;;0.70;0.20;;;;;;;16.77;53.66;98272.81;272751;1264;23863;-90
2024/03/29 09:11:47;;;;;;;1.70;0.60;;;;;;;17.12;55.52;98274.25;272110;1269;22502;-90
2024/03/29 09:17:54;;;;;;;1.80;0.40;;;;;;;18.20;55.69;98272.88;273145;1267;22328;-88
2024/03/29 09:23:59;;;;;;;1.50;0.40;;;;;;;19.09;52.89;98278.67;272415;1268;22630;-91
2024/03/29 09:30:05;;;;;;;0.80;0.40;;;;;;;19.95;51.18;98278.09;271665;1268;23731;-90
2024/03/29 09:36:10;;;;;;;0.60;0.40;;;;;;;20.46;48.70;98280.36;271836;1267;23462;-89
2024/03/29 09:42:15;;;;;;;0.80;0.40;;;;;;;20.91;47.04;98282.59;272149;1269;22352;-90
2024/03/29 09:48:21;;;;;;;1.70;0.20;;;;;;;21.89;47.21;98281.25;270495;1267;22544;-89
2024/03/29 09:54:23;;;;;;;0.30;0.30;;;;;;;22.73;45.74;98280.13;272630;1267;22338;-88
2024/03/29 10:00:26;;;;;;;1.00;0.40;;;;;;;23.19;44.25;98274.82;270668;1253;22594;-91
2024/03/29 10:06:29;;;;;;;0.80;0.20;;;;;;;22.80;40.69;98263.95;272275;1269;22319;-90
2024/03/29 10:12:34;;;;;;;;;;;;;;;22.73;40.14;98260.98;271855;1269;477867;-89
2024/03/29 10:18:36;;;;;;;0.80;0.30;;;;;;;23.27;38.83;98251.78;270254;1268;22685;-90
2024/03/29 10:24:40;;;;;;;0.90;0.50;;;;;;;23.96;38.84;98255.69;271488;1268;23799;-89
2024/03/29 10:30:42;;;;;;;1.70;0.50;;;;;;;24.62;38.58;98260.06;272798;1269;22290;-89
2024/03/29 10:37:01;;;;;;;1.50;0.40;;;;;;;24.41;36.21;98253.73;273524;1272;22265;-86
2024/03/29 10:43:12;;;;;;;0.90;0.30;;;;;;;23.46;31.84;98243.02;272697;1268;22338;-88
2024/03/29 10:49:16;;;;;;;0.50;0.30;;;;;;;23.41;34.09;98245.10;272773;1269;22335;-88
2024/03/29 10:55:21;;;;;;;0.10;0.10;;;;;;;24.30;33.58;98244.54;273136;1268;22283;-88
2024/03/29 11:01:23;;;;;;;0.40;0.20;;;;;;;24.83;33.14;98239.46;273006;1269;22268;-90
2024/03/29 11:07:34;;;;;;;0.60;0.30;;;;;;;24.59;32.53;98220.04;272869;1269;22382;-87
2024/03/29 11:14:36;;;;;;;0.90;0.30;;;;;;;24.46;31.24;98207.98;272452;1268;22393;-89
2024/03/29 11:20:53;;;;;;;0.90;0.30;;;;;;;24.37;29.77;98193.96;272053;1269;22380;-86
2024/03/29 11:26:55;;;;;;;0.50;0.20;;;;;;;24.38;29.23;98182.44;272122;1269;22295;-88
2024/03/29 11:33:34;;;;;;;0.60;0.10;;;;;;;24.52;30.01;98173.84;273502;1269;22251;-88
2024/03/29 11:39:36;;;;;;;0.50;0.30;;;;;;;24.60;30.17;98170.24;273181;1269;25208;-89
2024/03/29 11:45:39;;;;;;;0.80;0.40;;;;;;;24.50;29.48;98165.71;271571;1269;22391;-88
2024/03/29 11:51:43;;;;;;;1.10;0.20;;;;;;;23.80;29.35;98158.56;273346;1269;22255;-87
2024/03/29 11:57:47;;;;;;;0.70;0.20;;;;;;;23.69;30.57;98156.45;272298;1267;22635;-88
2024/03/29 12:04:41;;;;;;;0.40;0.20;;;;;;;23.55;29.61;98144.57;272984;1259;23317;-88
2024/03/29 12:10:45;;;;;;;1.90;0.40;;;;;;;22.90;29.81;98118.83;272321;1268;22515;-87
2024/03/29 12:16:47;;;;;;;0.30;0.10;;;;;;;22.63;30.20;98099.36;273128;1269;23026;-87
2024/03/29 12:22:52;;;;;;;0.70;0.40;;;;;;;22.39;29.28;98094.48;273295;1269;22322;-86
2024/03/29 12:29:26;;;;;;;0.50;0.20;;;;;;;21.89;29.30;98095.38;273673;1273;22299;-86
2024/03/29 12:44:02;;;;;;;;;;;;;;;;;;;;;
2024/03/29 12:58:11;;;;;;;2.10;0.40;;;;;;;21.61;30.71;98090.49;270461;1280;22594;-89
2024/03/29 13:04:32;;;;;;;0.70;0.30;;;;;;;21.19;31.19;98069.59;269999;1277;22319;-89
2024/03/29 13:10:34;;;;;;;1.70;0.50;;;;;;;21.05;32.43;98060.50;271112;1270;22395;-88
2024/03/29 13:16:39;;;;;;;1.30;0.50;;;;;;;21.12;32.74;98061.69;273760;1276;22990;-88
2024/03/29 13:23:10;;;;;;;0.90;0.40;;;;;;;21.22;32.30;98065.22;273647;1269;23773;-88
2024/03/29 13:29:16;;;;;;;2.50;1.40;;;;;;;21.09;32.79;98060.83;273364;1272;22258;-88
2024/03/29 13:35:24;;;;;;;1.40;0.50;;;;;;;21.13;33.64;98059.43;272979;1269;22447;-87
2024/03/29 13:41:29;;;;;;;3.70;0.50;;;;;;;21.05;34.16;98067.27;273440;1270;22251;-89
2024/03/29 13:47:59;;;;;;;1.90;0.60;;;;;;;20.88;33.77;98066.50;273685;1276;22275;-87
2024/03/29 13:54:02;;;;;;;2.00;0.50;;;;;;;20.63;34.33;98060.98;273324;1268;23315;-87
2024/03/29 14:00:07;;;;;;;2.00;0.40;;;;;;;20.50;34.49;98065.90;273113;1269;22492;-88
2024/03/29 14:06:12;;;;;;;3.90;1.00;;;;;;;20.50;35.46;98065.04;273235;1272;22248;-88
2024/03/29 14:12:21;;;;;;;4.10;0.50;;;;;;;20.38;35.44;98060.08;272969;1269;22244;-88
2024/03/29 14:18:36;;;;;;;1.10;0.60;;;;;;;20.22;37.05;98058.38;273576;1272;23497;-88
2024/03/29 14:24:45;;;;;;;2.30;0.40;;;;;;;20.30;37.19;98057.08;273419;1275;22246;-89
2024/03/29 14:30:46;;;;;;;3.50;0.80;;;;;;;20.36;37.10;98055.78;273466;1272;22376;-86
2024/03/29 14:36:50;;;;;;;2.90;0.70;;;;;;;20.21;37.49;98054.49;271976;1269;22366;-87
2024/03/29 14:42:57;;;;;;;1.60;0.40;;;;;;;20.10;37.40;98046.06;270235;1269;24216;-87
2024/03/29 14:49:06;;;;;;;2.60;1.00;;;;;;;19.99;37.25;98050.73;270104;1269;22670;-87
2024/03/29 14:55:09;;;;;;;4.70;0.70;;;;;;;19.68;37.51;98069.16;270665;1269;22639;-89
2024/03/29 15:01:11;;;;;;;1.90;0.60;;;;;;;19.56;38.34;98081.28;273240;1269;22296;-88
2024/03/29 15:07:13;;;;;;;5.70;0.60;;;;;;;19.30;38.15;98093.54;273428;1269;22233;-88
2024/03/29 15:13:15;;;;;;;4.50;0.80;;;;;;;19.07;38.29;98090.83;271752;1269;22366;-89
2024/03/29 15:19:20;;;;;;;3.60;0.80;;;;;;;18.90;38.31;98086.47;272910;1269;22384;-89
2024/03/29 15:25:22;;;;;;;2.00;0.80;;;;;;;18.72;38.98;98089.02;272839;1258;23618;-88
2024/03/29 15:31:35;;;;;;;2.50;0.80;;;;;;;18.55;40.03;98085.42;272645;1269;22213;-89
2024/03/29 15:37:37;;;;;;;3.10;0.70;;;;;;;18.34;40.72;98078.13;273020;1269;22300;-89
2024/03/29 15:43:42;;;;;;;4.60;1.10;;;;;;;18.23;41.37;98077.25;272609;1269;22342;-90
2024/03/29 15:49:47;;;;;;;2.10;0.80;;;;;;;18.03;42.09;98079.17;272872;1268;23779;-89
2024/03/29 15:55:48;;;;;;;2.80;0.80;;;;;;;17.83;41.99;98076.38;272386;1256;22494;-88
2024/03/29 16:02:03;;;;;;;3.70;0.70;;;;;;;17.57;42.63;98075.48;273121;1269;22462;-89
2024/03/29 16:08:05;;;;;;;2.90;1.10;;;;;;;17.29;43.23;98084.45;273096;1269;23387;-89
2024/03/29 16:14:36;;;;;;;3.50;1.10;;;;;;;17.07;43.95;98075.31;272848;1262;22427;-89
2024/03/29 16:20:38;;;;;;;6.50;0.90;;;;;;;16.86;44.66;98073.30;271590;1268;22418;-90
2024/03/29 16:26:40;;;;;;;6.60;0.90;;;;;;;16.79;45.33;98078.20;272919;1268;22377;-89
2024/03/29 16:32:54;;;;;;;3.40;0.80;;;;;;;16.58;46.22;98087.77;273882;1274;22207;-88
2024/03/29 16:38:55;;;;;;;5.20;1.20;;;;;;;16.36;46.58;98093.67;272824;1269;23748;-88
2024/03/29 16:44:58;;;;;;;4.30;1.10;;;;;;;16.18;46.55;98098.58;273714;1275;22477;-87
2024/03/29 16:51:07;;;;;;;5.40;1.60;;;;;;;16.02;46.84;98098.98;272575;1268;23430;-90
2024/03/29 16:57:09;;;;;;;5.50;2.10;;;;;;;15.77;47.63;98094.63;272814;1269;22313;-90
2024/03/29 17:03:11;;;;;;;6.50;1.50;;;;;;;15.47;47.94;98093.98;272963;1269;23348;-89
2024/03/29 17:09:36;;;;;;;5.10;1.90;;;;;;;15.23;48.37;98091.34;272666;1267;23471;-89
2024/03/29 17:15:38;;;;;;;7.70;2.10;;;;;;;15.12;48.63;98081.88;272229;1268;23221;-89
2024/03/29 17:21:40;;;;;;;7.60;2.00;;;;;;;14.91;49.33;98080.92;273031;1268;23645;-89
2024/03/29 17:27:42;;;;;;;5.10;1.70;;;;;;;14.78;49.91;98082.92;272803;1269;23664;-90
2024/03/29 17:33:44;;;;;;;6.00;2.20;;;;;;;14.67;50.23;98089.91;273157;1269;22379;-89
2024/03/29 17:39:45;;;;;;;10.70;4.40;;;;;;;14.61;50.53;98088.23;273072;1269;22391;-89
2024/03/29 17:45:47;;;;;;;7.90;3.80;;;;;;;14.42;51.19;98088.98;272664;1268;22240;-89
2024/03/29 17:51:52;;;;;;;11.10;4.80;;;;;;;14.13;51.69;98094.34;272662;1267;22268;-88
2024/03/29 17:57:54;;;;;;;13.80;4.80;;;;;;;13.78;52.42;98101.53;273004;1267;22313;-88
2024/03/29 18:03:56;;;;;;;11.10;4.10;;;;;;;13.48;53.16;98101.27;273023;1269;22317;-88
2024/03/29 18:09:59;;;;;;;19.50;6.10;;;;;;;13.11;53.52;98094.17;272373;1269;22548;-89
2024/03/29 18:24:49;;;;;;;17.90;7.20;;;;;;;12.39;56.41;98108.10;273585;1276;22281;-88
2024/03/29 18:38:52;;;;;;;25.30;10.40;;;;;;;11.84;59.10;98122.56;273042;1270;22574;-88
2024/03/29 18:45:22;;;;;;;21.10;10.10;;;;;;;11.68;59.94;98117.96;273397;1271;23029;-88
2024/03/29 18:52:16;;;;;;;19.10;6.80;;;;;;;11.43;60.10;98107.71;273176;1272;22709;-88
2024/03/29 19:29:53;;;;;;;17.80;7.10;;;;;;;10.55;66.06;98105.08;273772;1276;23474;-88
2024/03/29 19:36:48;;;;;;;16.10;8.10;;;;;;;10.42;66.81;98102.92;273554;1275;22280;-88
2024/03/29 19:43:43;;;;;;;18.50;6.80;;;;;;;10.32;67.95;98098.89;273581;1269;22357;-89
2024/03/29 20:19:56;;;;;;;29.60;12.80;;;;;;;9.77;72.28;98110.54;273899;1269;23141;-88
2024/03/29 20:25:57;;;;;;;27.60;10.40;;;;;;;9.70;72.96;98111.02;272659;1269;23280;-87
2024/03/29 20:32:05;;;;;;;23.40;11.90;;;;;;;9.65;73.38;98111.63;272955;1264;22383;-88
2024/03/29 20:38:08;;;;;;;26.20;11.90;;;;;;;9.60;73.96;98108.04;272214;1267;23260;-89
2024/03/29 20:44:09;;;;;;;30.70;10.80;;;;;;;9.52;74.66;98109.29;272856;1269;22498;-88
2024/03/29 20:50:12;;;;;;;23.20;9.60;;;;;;;9.46;75.39;98107.63;272258;1270;25298;-88
2024/03/29 20:56:13;;;;;;;20.40;9.90;;;;;;;9.47;76.79;98103.73;263339;1269;10001504;-90
2024/03/29 21:08:36;;;;;;;23.40;10.30;;;;;;;9.37;78.65;98087.56;272838;1269;22435;-88
2024/03/29 21:14:38;;;;;;;26.50;11.60;;;;;;;9.26;79.18;98085.91;272959;1262;24382;-90
2024/03/29 21:20:41;;;;;;;22.20;11.30;;;;;;;9.21;79.54;98086.60;272814;1269;22274;-88
2024/03/29 21:27:33;;;;;;;25.20;12.30;;;;;;;9.15;79.57;98092.29;273303;1269;22250;-89
2024/03/29 21:41:53;;;;;;;24.60;12.30;;;;;;;8.98;80.87;98089.59;274024;1275;22265;-89
2024/03/29 21:48:38;;;;;;;30.80;12.70;;;;;;;8.92;81.93;98098.23;273937;1270;22160;-88
2024/03/29 22:26:38;;;;;;;29.30;13.40;;;;;;;8.27;84.14;98098.72;274011;1271;22242;-89
2024/03/29 22:49:33;;;;;;;25.30;12.40;;;;;;;8.02;86.20;98094.08;274055;1273;22747;-88
2024/03/29 22:56:00;;;;;;;23.50;10.70;;;;;;;7.96;87.02;98093.34;273516;1269;22247;-89
2024/03/29 23:18:18;;;;;;;29.70;12.40;;;;;;;7.55;89.19;98098.23;271778;1270;22617;-87
2024/03/29 23:33:10;;;;;;;30.20;14.40;;;;;;;7.42;89.86;98089.64;273481;1274;22706;-88
2024/03/29 23:40:01;;;;;;;36.90;14.10;;;;;;;7.37;90.93;98086.40;274041;1273;22247;-88
2024/03/29 23:54:03;;;;;;;28.10;12.70;;;;;;;7.28;92.07;98082.98;272479;1269;22651;-88
